Time;durP1;ratioP1;P1;durP2;ratioP2;P2;SDS_P1;SDS_P2;PMS_P1;PMS_P2;Temp;Humidity;BMP_temperature;BMP_pressure;BME280_temperature;BME280_humidity;BME280_pressure;Samples;Min_cycle;Max_cycle;Signal;HPM_P1;HPM_P2
2021/11/26 00:02:06;;;;;;;26.45;15.07;;;10.80;84.90;;;;;;4971451;28;20062;-75
2021/11/26 00:04:32;;;;;;;27.42;14.90;;;10.90;85.50;;;;;;4971337;28;20062;-75
2021/11/26 00:06:57;;;;;;;23.58;13.90;;;10.80;84.90;;;;;;4972242;28;20113;-75
2021/11/26 00:09:23;;;;;;;23.05;13.55;;;10.80;84.90;;;;;;4973196;28;20054;-75
2021/11/26 00:11:48;;;;;;;24.10;14.60;;;10.90;84.90;;;;;;4975961;28;20027;-73
2021/11/26 00:14:29;;;;;;;25.15;13.80;;;10.90;84.90;;;;;;4976010;28;20023;-75
2021/11/26 00:16:58;;;;;;;27.98;13.80;;;10.80;84.90;;;;;;4974351;28;20051;-74
2021/11/26 00:19:27;;;;;;;24.00;13.75;;;10.80;84.90;;;;;;4975901;28;20023;-75
2021/11/26 00:21:54;;;;;;;26.10;13.90;;;10.90;85.00;;;;;;4974679;28;20404;-75
2021/11/26 00:24:19;;;;;;;22.85;13.88;;;10.70;84.90;;;;;;4975810;28;20035;-75
2021/11/26 00:26:49;;;;;;;27.33;14.32;;;10.90;85.00;;;;;;4974971;28;20477;-75
2021/11/26 00:29:15;;;;;;;21.60;13.68;;;10.90;85.10;;;;;;4974380;28;20034;-75
2021/11/26 00:31:41;;;;;;;26.52;13.90;;;10.70;84.90;;;;;;4974509;28;20027;-75
2021/11/26 00:34:07;;;;;;;24.30;13.82;;;10.90;85.10;;;;;;4974460;28;20508;-75
2021/11/26 00:36:33;;;;;;;20.23;13.02;;;10.80;85.00;;;;;;4974333;28;20031;-74
2021/11/26 00:39:00;;;;;;;22.95;13.95;;;10.90;85.10;;;;;;4975489;28;20073;-75
2021/11/26 00:41:26;;;;;;;26.33;15.20;;;10.70;85.00;;;;;;4974378;28;20082;-75
2021/11/26 00:43:52;;;;;;;24.40;13.80;;;10.90;85.10;;;;;;4975391;28;20019;-75
2021/11/26 00:46:19;;;;;;;24.20;14.20;;;10.90;85.20;;;;;;4975407;28;20444;-75
2021/11/26 00:48:45;;;;;;;23.88;13.77;;;10.90;85.20;;;;;;4975249;28;20027;-75
2021/11/26 00:51:11;;;;;;;24.38;14.00;;;10.90;85.30;;;;;;4975337;28;20370;-75
2021/11/26 00:53:37;;;;;;;21.55;14.02;;;10.80;85.20;;;;;;4973962;28;20515;-75
2021/11/26 00:56:03;;;;;;;22.15;14.07;;;10.90;85.30;;;;;;4975049;28;20042;-75
2021/11/26 00:58:29;;;;;;;21.45;12.90;;;10.90;85.30;;;;;;4974729;28;20030;-75
2021/11/26 01:00:54;;;;;;;19.15;12.73;;;10.90;85.30;;;;;;4973963;28;20081;-75
2021/11/26 01:03:22;;;;;;;20.45;12.30;;;10.90;85.40;;;;;;4973893;28;20566;-75
2021/11/26 01:05:49;;;;;;;22.63;13.10;;;10.90;85.30;;;;;;4974904;28;20062;-76
2021/11/26 01:08:15;;;;;;;22.10;13.05;;;10.90;85.40;;;;;;4973489;28;20074;-75
2021/11/26 01:10:41;;;;;;;22.05;13.18;;;10.90;85.40;;;;;;4973814;28;20027;-74
2021/11/26 01:13:08;;;;;;;20.83;12.82;;;10.80;85.40;;;;;;4974834;28;20031;-75
2021/11/26 01:15:34;;;;;;;22.95;13.95;;;10.80;85.40;;;;;;4973686;28;20609;-75
2021/11/26 01:18:00;;;;;;;20.65;13.18;;;10.80;85.40;;;;;;4973338;28;20061;-75
2021/11/26 01:20:28;;;;;;;22.00;13.52;;;10.90;85.40;;;;;;4973361;28;20054;-76
2021/11/26 01:22:55;;;;;;;22.05;12.70;;;11.00;85.50;;;;;;4972958;28;20117;-75
2021/11/26 01:25:21;;;;;;;20.90;12.30;;;10.80;85.30;;;;;;4974168;28;20033;-75
2021/11/26 01:27:47;;;;;;;20.13;12.20;;;10.80;85.30;;;;;;4974433;28;20031;-76
2021/11/26 01:30:28;;;;;;;19.83;13.02;;;10.90;85.30;;;;;;4973492;28;20378;-75
2021/11/26 01:32:56;;;;;;;21.40;12.45;;;10.80;85.20;;;;;;4973384;28;20026;-75
2021/11/26 01:35:22;;;;;;;20.40;11.52;;;11.00;85.30;;;;;;4974391;28;20089;-75
2021/11/26 01:37:48;;;;;;;22.73;12.48;;;10.90;85.20;;;;;;4974169;28;20019;-75
2021/11/26 01:40:15;;;;;;;26.90;13.60;;;10.80;85.10;;;;;;4973243;28;20165;-75
2021/11/26 01:42:41;;;;;;;26.92;13.68;;;10.90;85.10;;;;;;4974368;28;20582;-75
2021/11/26 01:45:08;;;;;;;22.50;12.30;;;10.90;85.00;;;;;;4973133;28;20069;-75
2021/11/26 01:47:33;;;;;;;24.15;13.32;;;10.80;84.90;;;;;;4972889;28;20027;-76
2021/11/26 01:50:00;;;;;;;24.88;12.45;;;10.80;84.80;;;;;;4974272;28;20050;-76
2021/11/26 01:52:25;;;;;;;20.58;12.00;;;10.80;84.70;;;;;;4972939;28;20416;-76
2021/11/26 01:54:51;;;;;;;19.75;12.73;;;10.90;84.70;;;;;;4974210;28;20019;-75
2021/11/26 01:57:19;;;;;;;21.40;11.63;;;10.70;84.70;;;;;;4972489;28;20122;-75
2021/11/26 01:59:48;;;;;;;20.85;12.60;;;10.80;84.70;;;;;;4974113;28;20074;-75
2021/11/26 02:02:14;;;;;;;33.60;13.23;;;10.80;84.70;;;;;;4974142;28;20038;-76
2021/11/26 02:04:39;;;;;;;49.17;14.75;;;10.80;84.90;;;;;;4972826;28;20031;-76
2021/11/26 02:07:05;;;;;;;42.22;14.15;;;10.90;84.90;;;;;;4972388;28;20038;-76
2021/11/26 02:09:31;;;;;;;40.50;15.45;;;11.00;84.80;;;;;;4973945;28;20101;-75
2021/11/26 02:11:56;;;;;;;26.83;14.23;;;10.90;84.70;;;;;;4973728;28;20074;-75
2021/11/26 02:14:22;;;;;;;23.95;13.25;;;11.00;84.60;;;;;;4972708;28;20121;-75
2021/11/26 02:16:49;;;;;;;40.90;14.13;;;11.00;84.60;;;;;;4972284;28;20494;-75
2021/11/26 02:19:16;;;;;;;22.77;13.05;;;11.00;84.50;;;;;;4973620;28;20023;-76
2021/11/26 02:21:42;;;;;;;23.15;13.02;;;10.90;84.40;;;;;;4973773;28;20062;-76
2021/11/26 02:24:08;;;;;;;22.63;13.48;;;11.00;84.40;;;;;;4973676;28;20023;-76
2021/11/26 02:26:39;;;;;;;25.27;13.52;;;11.00;84.30;;;;;;4973056;28;20385;-75
2021/11/26 02:29:05;;;;;;;25.25;13.30;;;11.00;84.30;;;;;;4973501;28;20484;-75
2021/11/26 02:31:31;;;;;;;23.65;12.98;;;10.90;84.20;;;;;;4973422;28;20448;-76
2021/11/26 02:33:57;;;;;;;22.40;13.73;;;11.00;84.20;;;;;;4973391;28;20050;-76
2021/11/26 02:36:23;;;;;;;25.17;13.55;;;11.10;84.30;;;;;;4972144;28;20077;-76
2021/11/26 02:38:48;;;;;;;23.08;13.07;;;11.10;84.30;;;;;;4971999;28;20070;-76
2021/11/26 02:41:14;;;;;;;23.02;13.02;;;11.10;84.30;;;;;;4973375;28;20022;-75
2021/11/26 02:43:39;;;;;;;23.23;12.85;;;11.00;84.20;;;;;;4973454;28;20161;-75
2021/11/26 02:46:05;;;;;;;24.50;13.27;;;11.10;84.20;;;;;;4973354;28;20066;-75
2021/11/26 02:48:31;;;;;;;28.02;14.18;;;11.00;84.20;;;;;;4971808;28;20122;-75
2021/11/26 02:50:57;;;;;;;27.35;13.93;;;11.00;84.30;;;;;;4973264;28;20027;-75
2021/11/26 02:53:22;;;;;;;29.52;14.13;;;11.00;84.20;;;;;;4973300;28;20050;-75
2021/11/26 02:55:48;;;;;;;22.95;13.15;;;10.90;84.20;;;;;;4974434;28;20058;-76
2021/11/26 02:58:14;;;;;;;23.42;13.75;;;10.90;84.30;;;;;;4973545;28;20527;-76
2021/11/26 03:00:43;;;;;;;23.35;13.43;;;10.90;84.30;;;;;;4973770;28;20030;-76
2021/11/26 03:03:09;;;;;;;24.17;13.93;;;10.90;84.50;;;;;;4973705;28;20023;-76
2021/11/26 03:05:35;;;;;;;25.95;14.38;;;10.90;84.60;;;;;;4972419;28;20077;-75
2021/11/26 03:08:01;;;;;;;24.25;14.00;;;10.80;84.70;;;;;;4973499;28;20125;-76
2021/11/26 03:10:27;;;;;;;27.35;15.30;;;10.80;84.70;;;;;;4972331;28;20488;-76
2021/11/26 03:12:59;;;;;;;26.70;14.35;;;10.80;84.90;;;;;;4972243;28;20121;-75
2021/11/26 03:15:26;;;;;;;27.50;14.60;;;10.80;84.90;;;;;;4973497;28;20105;-76
2021/11/26 03:17:54;;;;;;;25.00;16.00;;;10.80;85.00;;;;;;4973311;28;20081;-77
2021/11/26 03:20:20;;;;;;;28.40;16.05;;;10.90;85.10;;;;;;4973452;28;20027;-76
2021/11/26 03:22:46;;;;;;;27.92;15.40;;;10.70;84.90;;;;;;4963076;28;20052;-75
2021/11/26 03:25:12;;;;;;;26.10;15.88;;;10.80;85.00;;;;;;4952274;28;20397;-76
2021/11/26 03:27:38;;;;;;;29.00;16.85;;;10.80;85.00;;;;;;4971802;28;20279;-75
2021/11/26 03:30:06;;;;;;;28.15;15.88;;;10.80;85.00;;;;;;4973381;28;20491;-75
2021/11/26 03:32:32;;;;;;;32.65;17.15;;;10.80;84.90;;;;;;4973351;28;20026;-75
2021/11/26 03:34:57;;;;;;;27.38;16.42;;;10.80;84.90;;;;;;4973396;28;20034;-76
2021/11/26 03:37:23;;;;;;;30.13;16.10;;;10.70;84.90;;;;;;4971894;28;20023;-76
2021/11/26 03:39:49;;;;;;;29.67;18.40;;;10.70;84.80;;;;;;4973270;28;20026;-75
2021/11/26 03:42:14;;;;;;;28.73;17.40;;;10.80;84.90;;;;;;4973264;28;20058;-75
2021/11/26 03:44:40;;;;;;;30.95;17.88;;;10.70;84.90;;;;;;4973070;28;20082;-76
2021/11/26 03:47:06;;;;;;;33.53;17.98;;;10.80;84.90;;;;;;4976775;28;20027;-75
2021/11/26 03:49:31;;;;;;;32.05;18.80;;;10.80;84.90;;;;;;4976959;28;20094;-76
2021/11/26 03:51:57;;;;;;;29.80;17.85;;;10.80;84.90;;;;;;4976895;28;20023;-73
2021/11/26 03:54:23;;;;;;;28.40;17.48;;;10.90;85.00;;;;;;4975622;28;20031;-74
2021/11/26 03:56:48;;;;;;;32.13;19.63;;;10.80;84.90;;;;;;4976463;28;20038;-76
2021/11/26 03:59:14;;;;;;;34.63;19.48;;;10.80;85.00;;;;;;4976832;28;20409;-76
2021/11/26 04:01:40;;;;;;;32.15;19.08;;;10.90;85.00;;;;;;4976760;28;20106;-76
2021/11/26 04:04:05;;;;;;;31.77;19.23;;;10.80;84.80;;;;;;4976782;28;20062;-76
2021/11/26 04:06:31;;;;;;;33.08;19.30;;;10.80;84.90;;;;;;4976637;28;20100;-75
2021/11/26 04:08:56;;;;;;;32.33;18.88;;;10.80;84.80;;;;;;4975118;28;20018;-76
2021/11/26 04:11:23;;;;;;;32.67;19.67;;;10.80;84.80;;;;;;4976604;28;20029;-75
2021/11/26 04:13:48;;;;;;;34.97;20.60;;;10.70;84.70;;;;;;4976494;28;20057;-75
2021/11/26 04:16:14;;;;;;;33.25;19.38;;;10.70;84.80;;;;;;4975196;28;20488;-76
2021/11/26 04:18:41;;;;;;;34.45;19.77;;;10.70;84.70;;;;;;4976248;28;20023;-73
2021/11/26 04:21:06;;;;;;;35.75;20.30;;;10.80;84.80;;;;;;4976454;28;20026;-73
2021/11/26 04:23:32;;;;;;;34.55;19.83;;;10.90;84.80;;;;;;4976306;28;20393;-74
2021/11/26 04:25:58;;;;;;;36.03;20.33;;;10.80;84.70;;;;;;4975756;28;20035;-74
2021/11/26 04:28:24;;;;;;;35.90;21.17;;;10.70;84.70;;;;;;4974923;28;20023;-74
2021/11/26 04:30:49;;;;;;;33.63;20.80;;;10.80;84.70;;;;;;4975048;28;20026;-76
2021/11/26 04:33:15;;;;;;;40.92;22.25;;;10.80;84.70;;;;;;4976087;28;20066;-75
2021/11/26 04:35:44;;;;;;;33.92;20.80;;;10.70;84.80;;;;;;4974885;28;20051;-75
2021/11/26 04:38:10;;;;;;;34.55;20.67;;;10.80;84.70;;;;;;4974624;28;20019;-76
2021/11/26 04:40:35;;;;;;;37.47;21.00;;;10.80;84.80;;;;;;4974893;28;20027;-76
2021/11/26 04:43:01;;;;;;;35.72;22.17;;;10.80;84.70;;;;;;4976051;28;20415;-75
2021/11/26 04:45:27;;;;;;;34.70;20.90;;;10.80;84.70;;;;;;4975912;28;20503;-75
2021/11/26 04:47:52;;;;;;;36.17;21.42;;;10.80;84.70;;;;;;4974431;28;20121;-75
2021/11/26 04:50:19;;;;;;;36.63;21.33;;;10.70;84.70;;;;;;4975872;28;20035;-76
2021/11/26 04:52:44;;;;;;;39.83;22.30;;;10.80;84.80;;;;;;4974644;28;20555;-75
2021/11/26 04:55:12;;;;;;;37.53;22.20;;;10.70;84.60;;;;;;4974299;28;20062;-76
2021/11/26 04:57:37;;;;;;;36.25;22.48;;;10.80;84.70;;;;;;4975534;28;20034;-75
2021/11/26 05:00:05;;;;;;;36.05;21.70;;;10.80;84.60;;;;;;4974565;28;20022;-75
2021/11/26 05:02:31;;;;;;;37.33;22.13;;;10.80;84.70;;;;;;4975607;28;20114;-75
2021/11/26 05:04:56;;;;;;;35.80;21.60;;;10.80;84.70;;;;;;4974448;28;20472;-75
2021/11/26 05:07:23;;;;;;;37.08;21.42;;;10.70;84.60;;;;;;4974049;28;20117;-75
2021/11/26 05:09:49;;;;;;;36.25;22.15;;;10.80;84.60;;;;;;4975583;28;20049;-75
2021/11/26 05:12:15;;;;;;;37.58;22.30;;;10.80;84.60;;;;;;4974221;28;20034;-75
2021/11/26 05:14:40;;;;;;;35.63;20.95;;;10.90;84.70;;;;;;4975482;28;20019;-75
2021/11/26 05:17:06;;;;;;;35.00;21.75;;;10.80;84.70;;;;;;4973837;28;20027;-76
2021/11/26 05:19:32;;;;;;;35.88;22.05;;;10.90;84.80;;;;;;4975267;28;20101;-75
2021/11/26 05:21:57;;;;;;;35.67;22.52;;;10.70;84.70;;;;;;4973122;28;20035;-76
2021/11/26 05:24:23;;;;;;;39.53;23.15;;;10.80;84.70;;;;;;4973951;28;20093;-77
2021/11/26 05:26:49;;;;;;;37.67;22.70;;;10.80;84.70;;;;;;4973469;28;20458;-76
2021/11/26 05:29:14;;;;;;;37.35;22.17;;;10.80;84.70;;;;;;4975252;28;20097;-77
2021/11/26 05:31:40;;;;;;;36.28;22.23;;;10.80;84.70;;;;;;4973731;28;20038;-76
2021/11/26 05:34:08;;;;;;;36.03;21.58;;;10.80;84.80;;;;;;4973839;28;20114;-75
2021/11/26 05:36:35;;;;;;;37.35;22.15;;;10.80;84.80;;;;;;4973440;28;20096;-76
2021/11/26 05:39:02;;;;;;;38.95;22.30;;;10.70;84.80;;;;;;4974774;28;20550;-76
2021/11/26 05:41:28;;;;;;;34.58;21.33;;;10.80;84.80;;;;;;4974913;28;20035;-75
2021/11/26 05:43:54;;;;;;;37.13;21.95;;;10.80;84.80;;;;;;4974929;28;20037;-75
2021/11/26 05:46:19;;;;;;;39.22;22.75;;;10.80;84.90;;;;;;4972501;28;20027;-76
2021/11/26 05:48:45;;;;;;;35.10;21.60;;;10.80;84.90;;;;;;4969600;28;20033;-76
2021/11/26 05:51:10;;;;;;;35.58;21.55;;;10.80;84.90;;;;;;4965263;28;20027;-76
2021/11/26 05:53:36;;;;;;;36.00;21.77;;;10.80;84.90;;;;;;4965572;28;20071;-75
2021/11/26 05:56:02;;;;;;;38.67;22.40;;;10.80;84.90;;;;;;4966323;28;20393;-78
2021/11/26 05:58:28;;;;;;;36.38;21.92;;;10.70;84.80;;;;;;4951830;29;20193;-76
2021/11/26 06:00:55;;;;;;;31.45;19.85;;;10.60;84.80;;;;;;4951372;29;20019;-77
2021/11/26 06:03:21;;;;;;;34.53;21.92;;;10.80;84.90;;;;;;4950926;29;20035;-78
2021/11/26 06:05:47;;;;;;;35.03;21.55;;;10.80;84.80;;;;;;4948728;28;20038;-73
2021/11/26 06:08:13;;;;;;;36.35;21.50;;;10.80;84.90;;;;;;4948822;28;20027;-73
2021/11/26 06:10:38;;;;;;;35.45;21.00;;;10.80;84.90;;;;;;4950332;29;20050;-74
2021/11/26 06:13:04;;;;;;;33.97;20.75;;;10.80;84.90;;;;;;4948920;28;20035;-72
2021/11/26 06:15:30;;;;;;;37.40;21.23;;;10.80;84.90;;;;;;4948787;28;20047;-75
2021/11/26 06:17:56;;;;;;;35.53;21.92;;;10.80;84.90;;;;;;4948385;28;20023;-77
2021/11/26 06:20:23;;;;;;;33.63;20.70;;;10.70;84.80;;;;;;4966185;28;20441;-77
2021/11/26 06:22:48;;;;;;;34.10;21.20;;;10.70;84.90;;;;;;4978479;28;20058;-77
2021/11/26 06:25:18;;;;;;;36.45;21.48;;;10.80;85.00;;;;;;4971117;28;20106;-79
2021/11/26 06:27:45;;;;;;;33.28;20.75;;;10.80;84.90;;;;;;4970015;28;20035;-81
2021/11/26 06:30:12;;;;;;;34.55;20.42;;;10.80;84.90;;;;;;4971789;28;20027;-80
2021/11/26 06:32:40;;;;;;;33.88;21.33;;;10.80;84.90;;;;;;4973971;28;20596;-80
2021/11/26 06:35:08;;;;;;;34.47;20.48;;;10.80;84.80;;;;;;4973157;28;20045;-80
2021/11/26 06:37:34;;;;;;;34.67;20.67;;;10.90;84.70;;;;;;4972718;28;20062;-81
2021/11/26 06:40:00;;;;;;;34.85;20.70;;;10.80;84.50;;;;;;4972557;28;20027;-82
2021/11/26 06:42:26;;;;;;;33.80;20.30;;;10.90;83.00;;;;;;4973925;28;20314;-81
2021/11/26 06:44:52;;;;;;;33.95;21.25;;;10.90;83.60;;;;;;4972865;28;20595;-81
2021/11/26 06:47:19;;;;;;;34.88;21.05;;;10.90;84.00;;;;;;4973536;28;20077;-80
2021/11/26 06:49:44;;;;;;;31.38;20.30;;;10.80;84.00;;;;;;4973562;28;20089;-82
2021/11/26 06:52:10;;;;;;;29.15;18.90;;;10.90;84.10;;;;;;4974445;28;20030;-81
2021/11/26 06:54:36;;;;;;;34.05;19.98;;;10.90;84.00;;;;;;4974065;28;20089;-81
2021/11/26 06:57:02;;;;;;;30.38;18.75;;;10.80;84.00;;;;;;4973051;28;20026;-79
2021/11/26 06:59:27;;;;;;;31.88;19.48;;;10.90;84.00;;;;;;4970721;28;20535;-80
2021/11/26 07:01:53;;;;;;;31.23;19.92;;;10.90;84.10;;;;;;4970491;28;20026;-82
2021/11/26 07:04:19;;;;;;;32.00;18.80;;;10.90;84.00;;;;;;4970729;28;20031;-81
2021/11/26 07:06:45;;;;;;;33.42;19.35;;;10.90;83.90;;;;;;4968590;28;20030;-80
2021/11/26 07:09:11;;;;;;;35.05;20.42;;;11.00;83.90;;;;;;4972060;28;20038;-80
2021/11/26 07:11:36;;;;;;;35.25;19.67;;;10.90;83.90;;;;;;4970086;28;20034;-80
2021/11/26 07:14:02;;;;;;;32.67;19.52;;;11.00;84.00;;;;;;4971683;28;20026;-80
2021/11/26 07:16:28;;;;;;;33.78;19.45;;;10.90;83.90;;;;;;4973020;28;20077;-82
2021/11/26 07:18:54;;;;;;;33.25;18.95;;;10.80;83.90;;;;;;4974746;28;20027;-82
2021/11/26 07:21:20;;;;;;;31.48;18.95;;;10.90;83.90;;;;;;4977221;28;20031;-81
2021/11/26 07:23:45;;;;;;;29.13;19.13;;;10.90;84.00;;;;;;4978058;28;20035;-81
2021/11/26 07:26:11;;;;;;;30.73;18.50;;;10.80;83.90;;;;;;4978358;28;20034;-81
2021/11/26 07:28:37;;;;;;;31.20;19.75;;;10.90;84.00;;;;;;4977668;28;20542;-81
2021/11/26 07:31:03;;;;;;;31.48;19.83;;;10.90;84.40;;;;;;4976725;28;20053;-82
2021/11/26 07:33:29;;;;;;;32.70;18.55;;;10.90;84.40;;;;;;4976463;28;20042;-80
2021/11/26 07:35:54;;;;;;;34.40;19.70;;;10.80;84.50;;;;;;4976404;28;20038;-81
2021/11/26 07:38:20;;;;;;;32.25;19.10;;;10.70;84.70;;;;;;4976029;28;20027;-81
2021/11/26 07:40:45;;;;;;;28.23;18.48;;;10.80;84.90;;;;;;4977703;28;20037;-81
2021/11/26 07:43:12;;;;;;;28.15;18.13;;;10.80;85.00;;;;;;4977523;28;20026;-81
2021/11/26 07:45:38;;;;;;;30.52;19.60;;;10.70;85.10;;;;;;4977471;28;20047;-81
2021/11/26 07:48:03;;;;;;;31.25;18.63;;;10.70;85.10;;;;;;4977141;28;20080;-81
2021/11/26 07:50:29;;;;;;;31.63;18.60;;;10.80;85.20;;;;;;4977056;28;20058;-80
2021/11/26 07:52:55;;;;;;;28.20;18.38;;;10.80;85.30;;;;;;4975801;28;20031;-80
2021/11/26 07:55:20;;;;;;;28.33;17.90;;;10.70;85.20;;;;;;4976897;28;20049;-81
2021/11/26 07:57:46;;;;;;;29.25;18.50;;;10.70;85.30;;;;;;4975580;28;20120;-81
2021/11/26 08:00:13;;;;;;;31.65;18.70;;;10.70;85.20;;;;;;4976873;28;20023;-81
2021/11/26 08:02:39;;;;;;;29.77;18.48;;;10.70;85.30;;;;;;4975482;28;20035;-81
2021/11/26 08:05:05;;;;;;;27.40;18.13;;;10.80;85.30;;;;;;4977205;28;20443;-81
2021/11/26 08:07:31;;;;;;;28.67;18.40;;;10.70;85.30;;;;;;4974935;28;20104;-80
2021/11/26 08:09:57;;;;;;;30.77;19.02;;;10.60;85.30;;;;;;4977103;28;20027;-80
2021/11/26 08:12:22;;;;;;;26.52;17.92;;;10.70;85.40;;;;;;4987464;28;20034;-81
2021/11/26 08:14:51;;;;;;;29.10;18.38;;;10.60;85.30;;;;;;4995136;28;20022;-81
2021/11/26 08:17:16;;;;;;;25.55;17.02;;;10.80;85.40;;;;;;4996065;28;20018;-81
2021/11/26 08:19:42;;;;;;;28.98;18.40;;;10.80;85.40;;;;;;4995148;28;20033;-81
2021/11/26 08:22:08;;;;;;;26.27;17.15;;;10.80;85.40;;;;;;4995646;28;20105;-81
2021/11/26 08:24:33;;;;;;;26.30;17.85;;;10.80;85.50;;;;;;4995569;28;20026;-81
2021/11/26 08:26:59;;;;;;;28.63;18.17;;;10.80;85.50;;;;;;4995316;28;20027;-81
2021/11/26 08:29:25;;;;;;;28.08;18.30;;;10.70;85.50;;;;;;4995438;28;20027;-81
2021/11/26 08:31:51;;;;;;;27.45;18.50;;;10.80;85.60;;;;;;4993572;28;20026;-81
2021/11/26 08:34:17;;;;;;;25.67;16.90;;;10.60;85.40;;;;;;4995373;28;20078;-81
2021/11/26 08:36:43;;;;;;;26.48;17.50;;;10.70;85.50;;;;;;4994862;28;20032;-81
2021/11/26 08:39:09;;;;;;;27.45;17.88;;;10.70;85.60;;;;;;4997533;28;20050;-83
2021/11/26 08:41:35;;;;;;;24.90;17.42;;;10.80;85.60;;;;;;5000404;28;20030;-83
2021/11/26 08:44:01;;;;;;;24.48;16.55;;;10.80;85.60;;;;;;5001810;28;20148;-83
2021/11/26 08:46:27;;;;;;;24.42;17.10;;;10.80;85.70;;;;;;4999590;28;20034;-82
2021/11/26 08:48:52;;;;;;;27.77;17.73;;;10.80;85.70;;;;;;4998640;28;20019;-82
2021/11/26 08:51:20;;;;;;;25.63;17.13;;;10.80;85.60;;;;;;4999784;28;20427;-83
2021/11/26 08:53:46;;;;;;;25.35;16.90;;;10.80;85.60;;;;;;4998019;28;20030;-82
2021/11/26 08:56:14;;;;;;;25.17;16.83;;;10.70;85.60;;;;;;5017400;22;20046;-79
2021/11/26 08:58:40;;;;;;;25.25;16.42;;;10.80;85.60;;;;;;4973886;28;20439;-79
2021/11/26 09:01:07;;;;;;;22.33;15.45;;;10.80;86.00;;;;;;4974201;28;20027;-79
2021/11/26 09:03:34;;;;;;;24.58;15.80;;;10.70;85.50;;;;;;4974059;28;20480;-79
2021/11/26 09:06:00;;;;;;;22.63;15.60;;;10.80;85.50;;;;;;4973975;28;20030;-79
2021/11/26 09:08:26;;;;;;;22.20;15.35;;;10.80;85.50;;;;;;4973637;28;20428;-79
2021/11/26 09:10:52;;;;;;;21.88;15.13;;;10.60;85.40;;;;;;4974051;28;20030;-79
2021/11/26 09:13:19;;;;;;;21.65;14.52;;;10.80;85.50;;;;;;4973852;28;20373;-78
2021/11/26 09:15:45;;;;;;;22.48;15.32;;;10.80;85.50;;;;;;4974680;28;20027;-79
2021/11/26 09:18:13;;;;;;;22.67;15.25;;;10.80;85.60;;;;;;4973796;28;20066;-79
2021/11/26 09:20:39;;;;;;;21.83;14.60;;;10.70;85.50;;;;;;4973860;28;20023;-79
2021/11/26 09:23:07;;;;;;;20.13;13.85;;;10.80;85.50;;;;;;4973741;28;20050;-79
2021/11/26 09:25:33;;;;;;;22.75;14.65;;;10.80;85.60;;;;;;4973712;28;20023;-79
2021/11/26 09:27:59;;;;;;;21.05;14.77;;;10.70;85.40;;;;;;4974483;28;20374;-79
2021/11/26 09:30:27;;;;;;;19.45;13.57;;;10.80;85.50;;;;;;4973551;28;20031;-78
2021/11/26 09:32:53;;;;;;;20.08;13.90;;;10.80;85.50;;;;;;4973821;28;20031;-79
2021/11/26 09:35:20;;;;;;;20.90;14.10;;;10.90;86.00;;;;;;4973522;28;20382;-79
2021/11/26 09:37:46;;;;;;;17.80;12.15;;;10.70;85.40;;;;;;4973223;28;20387;-78
2021/11/26 09:40:12;;;;;;;17.45;12.35;;;10.60;85.40;;;;;;4973333;28;20170;-80
2021/11/26 09:42:42;;;;;;;19.75;13.07;;;10.80;86.00;;;;;;4973630;28;20396;-79
2021/11/26 09:45:10;;;;;;;19.35;12.75;;;10.60;85.40;;;;;;4973265;28;20023;-77
2021/11/26 09:47:35;;;;;;;20.63;13.55;;;10.80;85.60;;;;;;4973039;28;20105;-79
2021/11/26 09:50:01;;;;;;;18.15;12.30;;;10.80;85.60;;;;;;4973256;28;20066;-79
2021/11/26 09:52:27;;;;;;;18.67;12.25;;;10.70;85.60;;;;;;4972996;28;20496;-78
2021/11/26 09:54:53;;;;;;;16.10;11.65;;;10.70;85.60;;;;;;4973326;28;20027;-78
2021/11/26 09:57:18;;;;;;;17.20;11.25;;;10.80;85.70;;;;;;4972609;28;20041;-79
2021/11/26 09:59:45;;;;;;;17.35;11.65;;;10.80;85.70;;;;;;4974351;28;20389;-79
2021/11/26 10:02:19;;;;;;;15.85;10.68;;;10.70;85.70;;;;;;4972960;28;20039;-79
2021/11/26 10:05:00;;;;;;;17.10;11.20;;;10.80;85.70;;;;;;4972824;28;20551;-79
2021/11/26 10:07:25;;;;;;;15.77;10.97;;;10.80;85.60;;;;;;4972487;28;20058;-79
2021/11/26 10:09:52;;;;;;;14.70;10.45;;;10.80;85.60;;;;;;4972856;28;20263;-78
2021/11/26 10:12:18;;;;;;;15.00;10.30;;;10.80;85.60;;;;;;4973888;28;20058;-78
2021/11/26 10:14:46;;;;;;;14.45;10.25;;;10.80;85.60;;;;;;4972769;28;20031;-79
2021/11/26 10:17:14;;;;;;;15.23;10.77;;;10.80;85.50;;;;;;4972161;28;20027;-79
2021/11/26 10:19:51;;;;;;;13.38;9.45;;;10.80;85.50;;;;;;4972572;28;20026;-79
2021/11/26 10:22:22;;;;;;;15.02;9.98;;;10.80;85.40;;;;;;4972844;28;20026;-78
2021/11/26 10:25:20;;;;;;;15.00;10.35;;;10.80;85.40;;;;;;4972610;28;20396;-78
2021/11/26 10:27:59;;;;;;;14.02;9.82;;;10.80;85.40;;;;;;4972405;28;20031;-78
2021/11/26 10:30:34;;;;;;;12.52;8.82;;;10.80;85.30;;;;;;4972516;28;20496;-78
2021/11/26 10:33:16;;;;;;;13.73;9.25;;;10.80;85.30;;;;;;4972252;28;20027;-78
2021/11/26 10:35:43;;;;;;;13.73;9.27;;;10.80;85.20;;;;;;4972387;28;20027;-78
2021/11/26 10:38:20;;;;;;;14.52;9.20;;;10.80;85.70;;;;;;4972206;28;20018;-78
2021/11/26 10:40:50;;;;;;;14.27;9.52;;;10.80;85.20;;;;;;4973751;28;20019;-79
2021/11/26 10:43:26;;;;;;;13.27;8.32;;;10.80;85.20;;;;;;4972266;28;20027;-79
2021/11/26 10:51:44;;;;;;;13.00;9.15;;;10.80;85.00;;;;;;4973503;28;20023;-78
2021/11/26 10:59:39;;;;;;;13.43;8.75;;;10.70;85.00;;;;;;4973563;28;20029;-79
2021/11/26 11:02:06;;;;;;;12.48;8.55;;;10.70;85.10;;;;;;4972083;28;20033;-78
2021/11/26 11:04:32;;;;;;;13.20;8.57;;;10.80;85.10;;;;;;4971949;28;20051;-78
2021/11/26 11:07:02;;;;;;;12.40;8.23;;;10.80;85.10;;;;;;4971895;28;20054;-78
2021/11/26 11:09:46;;;;;;;12.80;8.27;;;10.80;85.10;;;;;;4971882;28;20433;-79
2021/11/26 11:12:13;;;;;;;11.77;7.75;;;10.70;85.00;;;;;;4971950;28;20451;-78
2021/11/26 11:14:51;;;;;;;11.95;8.25;;;10.70;85.10;;;;;;4973047;28;20054;-78
2021/11/26 11:17:19;;;;;;;11.95;8.18;;;10.80;85.00;;;;;;4971429;28;20019;-79
2021/11/26 11:19:45;;;;;;;12.52;8.77;;;10.90;84.90;;;;;;4972055;28;20519;-78
2021/11/26 11:22:10;;;;;;;11.77;8.05;;;10.80;84.60;;;;;;4971936;28;20026;-78
2021/11/26 11:24:36;;;;;;;12.20;8.30;;;10.80;84.50;;;;;;4971940;28;20031;-81
2021/11/26 11:27:02;;;;;;;12.15;8.60;;;10.90;84.50;;;;;;4971466;28;20091;-78
2021/11/26 11:29:28;;;;;;;11.93;8.15;;;10.80;84.20;;;;;;4971729;28;20047;-78
2021/11/26 11:31:57;;;;;;;11.88;8.55;;;10.90;84.30;;;;;;4971602;28;20057;-79
2021/11/26 11:34:25;;;;;;;12.63;8.95;;;11.00;84.30;;;;;;4971681;28;20023;-81
2021/11/26 11:37:00;;;;;;;11.90;8.18;;;10.90;84.20;;;;;;4971384;28;20396;-78
2021/11/26 11:39:26;;;;;;;12.07;8.77;;;10.90;84.10;;;;;;4973356;28;20050;-78
2021/11/26 11:41:57;;;;;;;11.15;8.07;;;10.90;84.00;;;;;;4971833;28;20030;-79
2021/11/26 11:44:27;;;;;;;12.00;8.13;;;10.90;83.90;;;;;;4971769;28;20093;-78
2021/11/26 11:46:57;;;;;;;11.50;8.25;;;10.80;83.90;;;;;;4972670;28;20035;-79
2021/11/26 11:49:34;;;;;;;11.27;7.63;;;10.90;84.00;;;;;;4971947;28;20027;-78
2021/11/26 11:52:03;;;;;;;10.65;7.38;;;10.90;83.90;;;;;;4972936;28;20098;-78
2021/11/26 11:54:43;;;;;;;11.45;7.57;;;10.90;83.90;;;;;;4971693;28;20041;-79
2021/11/26 11:57:27;;;;;;;11.10;7.72;;;10.90;83.80;;;;;;4971153;28;20095;-79
2021/11/26 12:00:14;;;;;;;10.95;7.55;;;10.90;84.00;;;;;;4971566;28;20070;-79
2021/11/26 12:02:40;;;;;;;11.98;8.02;;;10.90;84.10;;;;;;4971756;28;20109;-79
2021/11/26 12:05:06;;;;;;;10.85;7.28;;;10.80;84.00;;;;;;4971661;28;20480;-78
2021/11/26 12:07:32;;;;;;;11.73;7.43;;;10.90;84.10;;;;;;4975962;28;20031;-78
2021/11/26 12:10:13;;;;;;;11.35;7.80;;;10.80;84.10;;;;;;4975082;28;20511;-78
2021/11/26 12:12:54;;;;;;;11.82;7.30;;;10.80;84.20;;;;;;4975167;28;20078;-79
2021/11/26 12:15:32;;;;;;;11.68;7.05;;;10.70;84.10;;;;;;4974847;28;20042;-76
2021/11/26 12:18:04;;;;;;;10.20;6.88;;;10.80;84.70;;;;;;4973162;28;20034;-79
2021/11/26 12:20:31;;;;;;;11.43;7.13;;;10.80;84.20;;;;;;4975435;28;20050;-78
2021/11/26 12:23:05;;;;;;;10.15;6.93;;;10.80;84.30;;;;;;4975459;28;20050;-79
2021/11/26 12:28:25;;;;;;;10.38;7.05;;;10.70;84.30;;;;;;4976653;28;20404;-79
2021/11/26 12:31:08;;;;;;;11.60;7.25;;;10.80;84.20;;;;;;4976536;28;20086;-79
2021/11/26 12:33:34;;;;;;;9.40;6.90;;;10.70;84.20;;;;;;4975185;28;20037;-79
2021/11/26 12:36:03;;;;;;;11.20;7.03;;;10.70;84.30;;;;;;4976481;28;20033;-79
2021/11/26 12:38:52;;;;;;;10.55;6.65;;;10.60;84.20;;;;;;4974866;28;20022;-78
2021/11/26 12:41:32;;;;;;;9.90;6.50;;;10.70;84.30;;;;;;4975162;28;20027;-78
2021/11/26 12:43:59;;;;;;;11.88;6.80;;;10.70;84.20;;;;;;4973870;28;20082;-78